createdAt,value
2017-07-21T00:00:03.243Z,1005.65
2017-07-21T00:01:15.261Z,1005.7
2017-07-21T00:02:27.806Z,1005.66
2017-07-21T00:03:40.382Z,1005.72
2017-07-21T00:04:52.953Z,1005.72
2017-07-21T00:06:05.525Z,1005.73
2017-07-21T00:07:18.143Z,1005.72
2017-07-21T00:08:30.774Z,1005.7
2017-07-21T00:09:43.385Z,1005.7
2017-07-21T00:10:55.913Z,1005.72
2017-07-21T00:12:08.526Z,1005.7
2017-07-21T00:13:21.144Z,1005.75
2017-07-21T00:14:33.709Z,1005.76
2017-07-21T00:15:46.242Z,1005.77
2017-07-21T00:16:58.568Z,1005.79
2017-07-21T00:18:11.183Z,1005.76
2017-07-21T00:19:23.476Z,1005.78
2017-07-21T00:20:36.051Z,1005.8
2017-07-21T00:21:48.383Z,1005.75
2017-07-21T00:23:00.936Z,1005.76
2017-07-21T00:24:13.557Z,1005.75
2017-07-21T00:25:26.152Z,1005.74
2017-07-21T00:26:38.734Z,1005.75
2017-07-21T00:27:51.374Z,1005.75
2017-07-21T00:29:03.978Z,1005.73
2017-07-21T00:30:16.304Z,1005.72
2017-07-21T00:31:28.869Z,1005.77
2017-07-21T00:32:41.485Z,1005.76
2017-07-21T00:33:53.780Z,1005.74
2017-07-21T00:35:06.057Z,1005.8
2017-07-21T00:36:18.673Z,1005.8
2017-07-21T00:37:30.967Z,1005.79
2017-07-21T00:38:42.961Z,1005.79
2017-07-21T00:39:55.540Z,1005.84
2017-07-21T00:41:07.514Z,1005.86
2017-07-21T00:42:19.752Z,1005.89
2017-07-21T00:43:32.292Z,1005.89
2017-07-21T00:44:44.894Z,1005.88
2017-07-21T00:45:57.444Z,1005.86
2017-07-21T00:47:09.778Z,1005.88
2017-07-21T00:48:22.349Z,1005.93
2017-07-21T00:49:34.926Z,1005.9
2017-07-21T00:50:47.248Z,1005.91
2017-07-21T00:51:59.280Z,1005.9
2017-07-21T00:53:11.860Z,1005.9
2017-07-21T00:54:24.457Z,1005.89
2017-07-21T00:55:36.751Z,1005.95
2017-07-21T00:56:49.063Z,1005.95
2017-07-21T00:58:01.721Z,1005.95
2017-07-21T00:59:14.364Z,1005.94
2017-07-21T01:00:26.997Z,1005.94
2017-07-21T01:01:39.593Z,1005.99
2017-07-21T01:02:52.159Z,1005.91
2017-07-21T01:04:04.462Z,1005.88
2017-07-21T01:05:17.023Z,1005.93
2017-07-21T01:06:29.554Z,1005.91
2017-07-21T01:07:42.140Z,1005.98
2017-07-21T01:08:54.698Z,1005.96
2017-07-21T01:10:07.529Z,1005.94
2017-07-21T01:11:20.073Z,1006.01
2017-07-21T01:12:32.370Z,1006.04
2017-07-21T01:13:44.288Z,1005.99
2017-07-21T01:14:56.576Z,1006.03
2017-07-21T01:16:09.233Z,1006.03
2017-07-21T01:17:21.875Z,1006.08
2017-07-21T01:18:34.441Z,1006.09
2017-07-21T01:19:46.661Z,1006.09
2017-07-21T01:20:58.907Z,1006.12
2017-07-21T01:22:11.234Z,1006.13
2017-07-21T01:23:23.891Z,1006.16
2017-07-21T01:24:36.189Z,1006.17
2017-07-21T01:25:48.797Z,1006.17
2017-07-21T01:27:01.350Z,1006.19
2017-07-21T01:28:13.923Z,1006.18
2017-07-21T01:29:26.536Z,1006.14
2017-07-21T01:30:39.160Z,1006.15
2017-07-21T01:31:51.734Z,1006.21
2017-07-21T01:33:04.342Z,1006.19
2017-07-21T01:34:16.599Z,1006.22
2017-07-21T01:35:29.152Z,1006.22
2017-07-21T01:36:41.734Z,1006.22
2017-07-21T01:37:54.412Z,1006.26
2017-07-21T01:39:06.663Z,1006.26
2017-07-21T01:40:18.898Z,1006.24
2017-07-21T01:41:31.173Z,1006.28
2017-07-21T01:42:43.545Z,1006.29
2017-07-21T01:43:55.847Z,1006.3
2017-07-21T01:45:08.463Z,1006.31
2017-07-21T01:46:21.112Z,1006.31
2017-07-21T01:47:33.117Z,1006.28
2017-07-21T01:48:45.451Z,1006.28
2017-07-21T01:49:58.094Z,1006.28
2017-07-21T01:51:10.339Z,1006.27
2017-07-21T01:52:22.607Z,1006.32
2017-07-21T01:53:34.867Z,1006.33
2017-07-21T01:54:47.168Z,1006.34
2017-07-21T01:55:59.820Z,1006.33
2017-07-21T01:57:12.117Z,1006.34
2017-07-21T01:58:24.411Z,1006.35
2017-07-21T01:59:36.670Z,1006.33
2017-07-21T02:00:49.230Z,1006.36
2017-07-21T02:02:01.826Z,1006.35
2017-07-21T02:03:14.072Z,1006.37
2017-07-21T02:04:26.947Z,1006.4
2017-07-21T02:05:39.518Z,1006.4
2017-07-21T02:06:52.201Z,1006.38
2017-07-21T02:08:04.773Z,1006.39
2017-07-21T02:09:17.402Z,1006.38
2017-07-21T02:10:30.011Z,1006.4
2017-07-21T02:11:41.968Z,1006.39
2017-07-21T02:12:54.255Z,1006.42
2017-07-21T02:14:06.860Z,1006.42
2017-07-21T02:15:19.164Z,1006.43
2017-07-21T02:16:31.516Z,1006.49
2017-07-21T02:17:44.051Z,1006.47
2017-07-21T02:18:56.668Z,1006.44
2017-07-21T02:20:09.250Z,1006.46
2017-07-21T02:21:21.892Z,1006.5
2017-07-21T02:22:34.518Z,1006.49
2017-07-21T02:23:46.807Z,1006.52
2017-07-21T02:24:59.423Z,1006.54
2017-07-21T02:26:11.993Z,1006.53
2017-07-21T02:27:24.332Z,1006.52
2017-07-21T02:28:36.646Z,1006.51
2017-07-21T02:29:49.307Z,1006.57
2017-07-21T02:31:01.944Z,1006.54
2017-07-21T02:32:14.525Z,1006.56
2017-07-21T02:33:27.095Z,1006.53
2017-07-21T02:34:39.651Z,1006.59
2017-07-21T02:35:51.911Z,1006.59
2017-07-21T02:37:04.473Z,1006.6
2017-07-21T02:38:16.752Z,1006.63
2017-07-21T02:39:29.354Z,1006.62
2017-07-21T02:40:41.919Z,1006.59
2017-07-21T02:41:54.541Z,1006.61
2017-07-21T02:43:06.762Z,1006.61
2017-07-21T02:44:19.348Z,1006.61
2017-07-21T02:45:31.653Z,1006.68
2017-07-21T02:46:43.664Z,1006.63
2017-07-21T02:47:56.496Z,1006.67
2017-07-21T02:49:09.121Z,1006.64
2017-07-21T02:50:21.690Z,1006.67
2017-07-21T02:51:34.033Z,1006.66
2017-07-21T02:52:46.629Z,1006.66
2017-07-21T02:53:59.276Z,1006.68
2017-07-21T02:55:11.881Z,1006.67
2017-07-21T02:56:24.177Z,1006.7
2017-07-21T02:57:36.195Z,1006.67
2017-07-21T02:58:48.765Z,1006.7
2017-07-21T03:00:01.336Z,1006.76
2017-07-21T03:01:13.962Z,1006.75
2017-07-21T03:02:26.620Z,1006.74
2017-07-21T03:03:38.946Z,1006.72
2017-07-21T03:04:51.544Z,1006.74
2017-07-21T03:06:03.809Z,1006.76
2017-07-21T03:07:16.355Z,1006.75
2017-07-21T03:08:28.955Z,1006.78
2017-07-21T03:09:41.202Z,1006.75
2017-07-21T03:10:53.418Z,1006.77
2017-07-21T03:12:05.990Z,1006.69
2017-07-21T03:13:18.031Z,1006.71
2017-07-21T03:14:30.606Z,1006.77
2017-07-21T03:15:43.176Z,1006.81
2017-07-21T03:16:55.452Z,1006.84
2017-07-21T03:18:07.767Z,1006.81
2017-07-21T03:19:20.041Z,1006.85
2017-07-21T03:20:32.602Z,1006.84
2017-07-21T03:21:45.176Z,1006.84
2017-07-21T03:22:57.744Z,1006.84
2017-07-21T03:24:10.364Z,1006.83
2017-07-21T03:25:22.646Z,1006.85
2017-07-21T03:26:34.927Z,1006.89
2017-07-21T03:27:47.553Z,1006.89
2017-07-21T03:29:00.187Z,1006.85
2017-07-21T03:30:12.856Z,1006.89
2017-07-21T03:31:25.446Z,1006.92
2017-07-21T03:32:37.752Z,1006.88
2017-07-21T03:33:50.021Z,1006.94
2017-07-21T03:35:02.597Z,1006.93
2017-07-21T03:36:14.911Z,1006.96
2017-07-21T03:37:27.470Z,1006.96
2017-07-21T03:38:40.116Z,1007
2017-07-21T03:39:52.731Z,1006.96
2017-07-21T03:41:05.023Z,1006.99
2017-07-21T03:42:17.636Z,1007.03
2017-07-21T03:43:30.213Z,1007.04
2017-07-21T03:44:42.184Z,1007.03
2017-07-21T03:45:54.504Z,1007.07
2017-07-21T03:47:06.802Z,1007.08
2017-07-21T03:48:19.446Z,1007.06
2017-07-21T03:49:32.018Z,1007.11
2017-07-21T03:50:44.619Z,1007.09
2017-07-21T03:51:57.240Z,1007.07
2017-07-21T03:53:09.555Z,1007.07
2017-07-21T03:54:22.158Z,1007.07
2017-07-21T03:55:34.800Z,1007.09
2017-07-21T03:56:47.428Z,1007.06
2017-07-21T03:58:00.009Z,1007.03
2017-07-21T03:59:12.255Z,1007.05
2017-07-21T04:00:24.813Z,1007.09
2017-07-21T04:01:37.394Z,1007.1
2017-07-21T04:02:49.303Z,1007.11
2017-07-21T04:04:01.941Z,1007.12
2017-07-21T04:05:14.565Z,1007.12
2017-07-21T04:06:26.816Z,1007.15
2017-07-21T04:07:39.457Z,1007.18
2017-07-21T04:08:52.067Z,1007.17
2017-07-21T04:10:04.342Z,1007.14
2017-07-21T04:11:16.694Z,1007.17
2017-07-21T04:12:29.259Z,1007.18
2017-07-21T04:13:41.186Z,1007.19
2017-07-21T04:14:53.762Z,1007.21
2017-07-21T04:16:05.727Z,1007.25
2017-07-21T04:17:18.325Z,1007.21
2017-07-21T04:18:30.871Z,1007.25
2017-07-21T04:19:43.170Z,1007.2
2017-07-21T04:20:55.756Z,1007.2
2017-07-21T04:22:08.387Z,1007.22
2017-07-21T04:23:21.042Z,1007.23
2017-07-21T04:24:33.661Z,1007.24
2017-07-21T04:25:45.964Z,1007.3
2017-07-21T04:26:58.302Z,1007.28
2017-07-21T04:28:10.905Z,1007.31
2017-07-21T04:29:23.192Z,1007.33
2017-07-21T04:30:35.511Z,1007.34
2017-07-21T04:31:48.149Z,1007.35
2017-07-21T04:33:00.126Z,1007.39
2017-07-21T04:34:12.736Z,1007.38
2017-07-21T04:35:25.271Z,1007.4
2017-07-21T04:36:37.552Z,1007.41
2017-07-21T04:37:50.199Z,1007.37
2017-07-21T04:39:02.512Z,1007.37
2017-07-21T04:40:14.767Z,1007.39
2017-07-21T04:41:26.823Z,1007.38
2017-07-21T04:42:38.793Z,1007.43
2017-07-21T04:43:51.060Z,1007.41
2017-07-21T04:45:03.673Z,1007.46
2017-07-21T04:46:16.226Z,1007.48
2017-07-21T04:47:28.918Z,1007.45
2017-07-21T04:48:41.492Z,1007.44
2017-07-21T04:49:54.165Z,1007.45
2017-07-21T04:51:06.771Z,1007.46
2017-07-21T04:52:19.087Z,1007.44
2017-07-21T04:53:31.656Z,1007.44
2017-07-21T04:54:44.261Z,1007.5
2017-07-21T04:55:56.560Z,1007.55
2017-07-21T04:57:08.885Z,1007.53
2017-07-21T04:58:20.861Z,1007.56
2017-07-21T04:59:33.174Z,1007.57
2017-07-21T05:00:45.406Z,1007.61
2017-07-21T05:01:58.073Z,1007.59
2017-07-21T05:03:10.664Z,1007.62
2017-07-21T05:04:23.565Z,1007.63
2017-07-21T05:05:35.915Z,1007.62
2017-07-21T05:06:48.182Z,1007.63
2017-07-21T05:08:00.813Z,1007.57
2017-07-21T05:09:13.378Z,1007.61
2017-07-21T05:10:25.739Z,1007.61
2017-07-21T05:11:38.294Z,1007.68
2017-07-21T05:12:50.936Z,1007.63
2017-07-21T05:14:03.150Z,1007.67
2017-07-21T05:15:15.428Z,1007.68
2017-07-21T05:16:28.018Z,1007.62
2017-07-21T05:17:40.603Z,1007.69
2017-07-21T05:18:52.862Z,1007.65
2017-07-21T05:20:05.485Z,1007.67
2017-07-21T05:21:18.154Z,1007.7
2017-07-21T05:22:30.128Z,1007.69
2017-07-21T05:23:42.692Z,1007.71
2017-07-21T05:24:55.249Z,1007.76
2017-07-21T05:26:07.238Z,1007.74
2017-07-21T05:27:19.538Z,1007.81
2017-07-21T05:28:31.883Z,1007.8
2017-07-21T05:29:44.423Z,1007.77
2017-07-21T05:30:56.726Z,1007.83
2017-07-21T05:32:09.330Z,1007.8
2017-07-21T05:33:21.613Z,1007.83
2017-07-21T05:34:34.131Z,1007.88
2017-07-21T05:35:46.394Z,1007.84
2017-07-21T05:36:58.625Z,1007.87
2017-07-21T05:38:10.880Z,1007.87
2017-07-21T05:39:23.515Z,1007.92
2017-07-21T05:40:36.097Z,1007.9
2017-07-21T05:41:48.711Z,1007.96
2017-07-21T05:43:00.733Z,1008
2017-07-21T05:44:12.760Z,1007.98
2017-07-21T05:45:25.369Z,1007.97
2017-07-21T05:46:37.916Z,1007.99
2017-07-21T05:47:50.197Z,1008.02
2017-07-21T05:49:02.787Z,1008.02
2017-07-21T05:50:14.780Z,1008.03
2017-07-21T05:51:26.998Z,1008.07
2017-07-21T05:52:39.270Z,1008.14
2017-07-21T05:53:51.872Z,1008.16
2017-07-21T05:55:04.454Z,1008.11
2017-07-21T05:56:16.438Z,1008.19
2017-07-21T05:57:28.985Z,1008.18
2017-07-21T05:58:41.556Z,1008.19
2017-07-21T05:59:53.871Z,1008.17
2017-07-21T06:01:06.194Z,1008.2
2017-07-21T06:02:18.469Z,1008.24
2017-07-21T06:03:31.288Z,1008.28
2017-07-21T06:04:43.829Z,1008.26
2017-07-21T06:05:56.121Z,1008.28
2017-07-21T06:07:08.682Z,1008.34
2017-07-21T06:08:21.318Z,1008.35
2017-07-21T06:09:33.946Z,1008.36
2017-07-21T06:10:46.537Z,1008.39
2017-07-21T06:11:58.860Z,1008.37
2017-07-21T06:13:10.831Z,1008.41
2017-07-21T06:14:23.403Z,1008.36
2017-07-21T06:15:35.735Z,1008.42
2017-07-21T06:16:48.355Z,1008.43
2017-07-21T06:18:00.663Z,1008.43
2017-07-21T06:19:13.258Z,1008.4
2017-07-21T06:20:25.849Z,1008.41
2017-07-21T06:21:38.178Z,1008.44
2017-07-21T06:22:50.781Z,1008.46
2017-07-21T06:24:03.395Z,1008.5
2017-07-21T06:25:15.652Z,1008.61
2017-07-21T06:26:28.234Z,1008.44
2017-07-21T06:27:40.525Z,1008.45
2017-07-21T06:28:52.759Z,1008.52
2017-07-21T06:30:05.369Z,1008.54
2017-07-21T06:31:17.625Z,1008.5
2017-07-21T06:32:30.216Z,1008.54
2017-07-21T06:33:42.812Z,1008.71
2017-07-21T06:34:55.063Z,1008.66
2017-07-21T06:36:07.023Z,1008.62
2017-07-21T06:37:19.654Z,1008.82
2017-07-21T06:38:31.943Z,1008.87
2017-07-21T06:39:44.286Z,1008.54
2017-07-21T06:40:56.899Z,1008.62
2017-07-21T06:42:09.460Z,1008.75
2017-07-21T06:43:21.753Z,1008.68
2017-07-21T06:44:34.374Z,1008.72
2017-07-21T06:45:46.721Z,1008.75
2017-07-21T06:46:58.737Z,1008.92
2017-07-21T06:48:11.074Z,1009
2017-07-21T06:49:23.657Z,1009.17
2017-07-21T06:50:36.306Z,1009.16
2017-07-21T06:51:48.622Z,1009.14
2017-07-21T06:53:00.920Z,1009.09
2017-07-21T06:54:13.191Z,1009.1
2017-07-21T06:55:25.474Z,1009.07
2017-07-21T06:56:37.820Z,1009.08
2017-07-21T06:57:50.410Z,1009.13
2017-07-21T06:59:02.698Z,1009.15
2017-07-21T07:00:14.950Z,1009.15
2017-07-21T07:01:27.614Z,1009.17
2017-07-21T07:02:39.565Z,1009.15
2017-07-21T07:03:51.896Z,1009.16
2017-07-21T07:05:04.517Z,1009.23
2017-07-21T07:06:16.787Z,1009.23
2017-07-21T07:07:29.119Z,1009.24
2017-07-21T07:08:41.744Z,1009.2
2017-07-21T07:09:54.042Z,1009.19
2017-07-21T07:11:06.631Z,1009.09
2017-07-21T07:12:18.957Z,1009
2017-07-21T07:13:31.258Z,1008.99
2017-07-21T07:14:43.260Z,1008.99
2017-07-21T07:15:55.491Z,1009.05
2017-07-21T07:17:07.789Z,1009.07
2017-07-21T07:18:19.831Z,1008.98
2017-07-21T07:19:32.400Z,1009.09
2017-07-21T07:20:44.938Z,1009.08
2017-07-21T07:21:57.561Z,1009.06
2017-07-21T07:23:10.193Z,1009.12
2017-07-21T07:24:22.863Z,1009.01
2017-07-21T07:25:35.504Z,1008.97
2017-07-21T07:26:48.119Z,1008.97
2017-07-21T07:28:00.129Z,1009.06
2017-07-21T07:29:12.761Z,1009.11
2017-07-21T07:30:25.043Z,1009.13
2017-07-21T07:31:37.583Z,1009.11
2017-07-21T07:32:50.259Z,1009.2
2017-07-21T07:34:02.844Z,1009.15
2017-07-21T07:35:15.474Z,1009.18
2017-07-21T07:36:28.122Z,1009.12
2017-07-21T07:37:40.738Z,1009.15
2017-07-21T07:38:53.046Z,1009.16
2017-07-21T07:40:05.674Z,1009.06
2017-07-21T07:41:17.945Z,1009.2
2017-07-21T07:42:30.570Z,1009.24
2017-07-21T07:43:42.911Z,1009.26
2017-07-21T07:44:55.176Z,1009.26
2017-07-21T07:46:07.843Z,1009.19
2017-07-21T07:47:20.168Z,1009.22
2017-07-21T07:48:32.773Z,1009.3
2017-07-21T07:49:45.374Z,1009.49
2017-07-21T07:50:58.006Z,1009.51
2017-07-21T07:52:10.259Z,1009.44
2017-07-21T07:53:22.809Z,1009.45
2017-07-21T07:54:35.389Z,1009.51
2017-07-21T07:55:48.038Z,1009.47
2017-07-21T07:57:00.685Z,1009.47
2017-07-21T07:58:12.947Z,1009.59
2017-07-21T07:59:25.503Z,1009.47
2017-07-21T08:00:37.786Z,1009.62
2017-07-21T08:03:02.721Z,1009.64
2017-07-21T08:04:14.777Z,1009.56
2017-07-21T08:05:27.438Z,1009.72
2017-07-21T08:06:40.047Z,1009.71
2017-07-21T08:07:52.004Z,1009.54
2017-07-21T08:09:04.294Z,1009.65
2017-07-21T08:10:16.882Z,1009.76
2017-07-21T08:11:29.512Z,1009.78
2017-07-21T08:12:42.152Z,1009.76
2017-07-21T08:13:54.773Z,1009.71
2017-07-21T08:15:07.063Z,1009.71
2017-07-21T08:16:19.610Z,1009.76
2017-07-21T08:17:32.191Z,1009.74
2017-07-21T08:18:44.882Z,1009.83
2017-07-21T08:19:57.514Z,1009.82
2017-07-21T08:21:09.818Z,1009.78
2017-07-21T08:22:22.443Z,1009.82
2017-07-21T08:23:34.721Z,1009.83
2017-07-21T08:24:46.754Z,1009.98
2017-07-21T08:25:59.056Z,1009.89
2017-07-21T08:27:11.679Z,1009.95
2017-07-21T08:28:24.244Z,1009.93
2017-07-21T08:29:36.789Z,1010.02
2017-07-21T08:30:49.421Z,1010.01
2017-07-21T08:32:01.730Z,1010.05
2017-07-21T08:33:14.382Z,1010.06
2017-07-21T08:34:26.652Z,1010.05
2017-07-21T08:35:38.931Z,1010.02
2017-07-21T08:36:51.466Z,1010.05
2017-07-21T08:38:04.077Z,1010.09
2017-07-21T08:39:16.356Z,1010.08
2017-07-21T08:40:28.327Z,1010.03
2017-07-21T08:41:40.953Z,1009.98
2017-07-21T08:42:53.571Z,1009.95
2017-07-21T08:44:05.807Z,1010.11
2017-07-21T08:45:18.368Z,1010.13
2017-07-21T08:46:30.620Z,1010.05
2017-07-21T08:47:42.927Z,1010.13
2017-07-21T08:48:55.273Z,1010.16
2017-07-21T08:50:07.594Z,1010.03
2017-07-21T08:51:20.164Z,1010.13
2017-07-21T08:52:32.767Z,1010.23
2017-07-21T08:53:45.082Z,1010.16
2017-07-21T08:54:57.358Z,1010.21
2017-07-21T08:56:09.331Z,1010.16
2017-07-21T08:57:21.934Z,1010.06
2017-07-21T08:58:34.540Z,1010.15
2017-07-21T08:59:47.178Z,1010.15
2017-07-21T09:00:59.785Z,1010.16
2017-07-21T09:02:11.779Z,1010.16
2017-07-21T09:03:24.350Z,1010.11
2017-07-21T09:04:36.945Z,1010.12
2017-07-21T09:05:49.569Z,1010.15
2017-07-21T09:07:02.244Z,1010.06
2017-07-21T09:08:14.934Z,1010.02
2017-07-21T09:09:27.265Z,1010.14
2017-07-21T09:10:39.599Z,1010.16
2017-07-21T09:11:52.157Z,1010.27
2017-07-21T09:13:04.179Z,1010.17
2017-07-21T09:14:16.530Z,1010.12
2017-07-21T09:15:29.087Z,1010.06
2017-07-21T09:16:41.682Z,1010.2
2017-07-21T09:17:54.043Z,1010.34
2017-07-21T09:19:06.346Z,1010.23
2017-07-21T09:20:18.615Z,1010.32
2017-07-21T09:21:31.193Z,1010.31
2017-07-21T09:22:43.791Z,1010.26
2017-07-21T09:23:56.069Z,1010.26
2017-07-21T09:25:08.024Z,1010.13
2017-07-21T09:26:20.339Z,1010.05
2017-07-21T09:27:32.645Z,1010.05
2017-07-21T09:28:44.941Z,1009.97
2017-07-21T09:29:57.576Z,1009.99
2017-07-21T09:31:09.555Z,1010.05
2017-07-21T09:32:22.144Z,1010.21
2017-07-21T09:33:34.804Z,1010.21
2017-07-21T09:34:47.052Z,1010.27
2017-07-21T09:35:59.332Z,1010.24
2017-07-21T09:37:11.895Z,1010.08
2017-07-21T09:38:24.541Z,1010.04
2017-07-21T09:39:36.504Z,1010.01
2017-07-21T09:40:49.201Z,1009.98
2017-07-21T09:42:01.761Z,1010.06
2017-07-21T09:43:14.014Z,1010.23
2017-07-21T09:44:26.613Z,1010.15
2017-07-21T09:45:38.964Z,1009.97
2017-07-21T09:46:51.219Z,1010.07
2017-07-21T09:48:03.504Z,1010.09
2017-07-21T09:49:15.857Z,1010.08
2017-07-21T09:50:28.176Z,1010.17
2017-07-21T09:51:40.812Z,1010.13
2017-07-21T09:52:53.109Z,1010.11
2017-07-21T09:54:05.089Z,1010.09
2017-07-21T09:55:17.366Z,1010.11
2017-07-21T09:56:29.695Z,1010.21
2017-07-21T09:57:41.971Z,1010.13
2017-07-21T09:58:54.344Z,1010.23
2017-07-21T10:00:06.619Z,1010.28
2017-07-21T10:01:19.231Z,1010.3
2017-07-21T10:02:31.548Z,1010.3
2017-07-21T10:03:43.797Z,1010.25
2017-07-21T10:04:56.466Z,1010.12
2017-07-21T10:06:09.151Z,1009.96
2017-07-21T10:07:21.150Z,1009.93
2017-07-21T10:08:33.422Z,1010.01
2017-07-21T10:09:45.707Z,1009.98
2017-07-21T10:10:58.330Z,1009.91
2017-07-21T10:12:10.659Z,1009.9
2017-07-21T10:13:23.237Z,1009.92
2017-07-21T10:14:35.558Z,1009.88
2017-07-21T10:15:48.097Z,1009.89
2017-07-21T10:17:00.726Z,1009.84
2017-07-21T10:18:13.307Z,1009.81
2017-07-21T10:19:25.982Z,1009.83
2017-07-21T10:20:38.616Z,1009.8
2017-07-21T10:21:50.966Z,1009.8
2017-07-21T10:23:03.254Z,1009.8
2017-07-21T10:24:15.893Z,1009.81
2017-07-21T10:25:28.497Z,1009.73
2017-07-21T10:26:41.054Z,1009.81
2017-07-21T10:27:53.388Z,1009.78
2017-07-21T10:29:06.075Z,1009.86
2017-07-21T10:30:18.366Z,1009.86
2017-07-21T10:31:30.979Z,1009.82
2017-07-21T10:32:43.521Z,1009.86
2017-07-21T10:33:55.811Z,1009.88
2017-07-21T10:35:08.514Z,1009.83
2017-07-21T10:36:21.140Z,1009.83
2017-07-21T10:37:33.088Z,1009.87
2017-07-21T10:38:45.732Z,1009.86
2017-07-21T10:39:58.070Z,1009.89
2017-07-21T10:41:10.105Z,1009.91
2017-07-21T10:42:22.473Z,1009.86
2017-07-21T10:43:34.511Z,1009.78
2017-07-21T10:44:46.750Z,1009.85
2017-07-21T10:45:59.318Z,1009.81
2017-07-21T10:47:11.965Z,1009.73
2017-07-21T10:48:24.581Z,1009.78
2017-07-21T10:49:37.226Z,1009.78
2017-07-21T10:50:49.908Z,1009.83
2017-07-21T10:52:02.249Z,1009.98
2017-07-21T10:53:14.194Z,1009.94
2017-07-21T10:54:26.494Z,1009.86
2017-07-21T10:55:38.146Z,1009.88
2017-07-21T10:56:50.791Z,1009.82
2017-07-21T10:58:03.414Z,1009.85
2017-07-21T10:59:15.668Z,1009.82
2017-07-21T11:00:28.278Z,1009.89
2017-07-21T11:01:40.572Z,1009.88
2017-07-21T11:02:52.288Z,1009.81
2017-07-21T11:04:04.884Z,1009.82
2017-07-21T11:05:17.536Z,1009.96
2017-07-21T11:06:30.164Z,1009.86
2017-07-21T11:07:42.737Z,1009.79
2017-07-21T11:08:54.724Z,1009.85
2017-07-21T11:10:07.056Z,1009.83
2017-07-21T11:11:19.398Z,1009.76
2017-07-21T11:12:32.066Z,1009.72
2017-07-21T11:13:44.349Z,1009.78
2017-07-21T11:14:56.640Z,1009.76
2017-07-21T11:16:09.302Z,1009.81
2017-07-21T11:17:21.612Z,1009.84
2017-07-21T11:18:33.911Z,1009.94
2017-07-21T11:19:46.239Z,1009.96
2017-07-21T11:20:58.882Z,1010.02
2017-07-21T11:22:11.196Z,1010.04
2017-07-21T11:23:23.773Z,1010.02
2017-07-21T11:24:36.374Z,1010.02
2017-07-21T11:25:48.953Z,1010.08
2017-07-21T11:27:01.630Z,1010.14
2017-07-21T11:28:14.222Z,1010.12
2017-07-21T11:29:25.936Z,1010.09
2017-07-21T11:30:38.582Z,1010.12
2017-07-21T11:31:50.914Z,1010.07
2017-07-21T11:33:03.549Z,1010.09
2017-07-21T11:34:16.189Z,1010.08
2017-07-21T11:35:28.751Z,1010.12
2017-07-21T11:36:41.441Z,1010.09
2017-07-21T11:37:54.037Z,1010.08
2017-07-21T11:39:06.659Z,1010.08
2017-07-21T11:40:19.521Z,1010.1
2017-07-21T11:41:31.805Z,1010.14
2017-07-21T11:42:44.083Z,1010.04
2017-07-21T11:43:56.681Z,1010.01
2017-07-21T11:45:08.679Z,1009.96
2017-07-21T11:46:20.675Z,1010.01
2017-07-21T11:47:33.311Z,1010.01
2017-07-21T11:48:45.913Z,1010
2017-07-21T11:49:57.895Z,1009.98
2017-07-21T11:51:09.624Z,1009.93
2017-07-21T11:52:21.951Z,1009.95
2017-07-21T11:53:34.271Z,1009.94
2017-07-21T11:54:46.554Z,1009.91
2017-07-21T11:55:59.139Z,1009.84
2017-07-21T11:57:11.762Z,1009.9
2017-07-21T11:58:24.067Z,1009.86
2017-07-21T11:59:36.435Z,1009.9
2017-07-21T12:00:49.076Z,1009.82
2017-07-21T12:02:01.693Z,1009.8
2017-07-21T12:03:14.042Z,1009.72
2017-07-21T12:04:26.397Z,1009.73
2017-07-21T12:05:39.072Z,1009.64
2017-07-21T12:06:51.664Z,1009.59
2017-07-21T12:08:04.280Z,1009.62
2017-07-21T12:09:16.637Z,1009.69
2017-07-21T12:10:28.617Z,1009.64
2017-07-21T12:11:40.960Z,1009.63
2017-07-21T12:12:52.950Z,1009.63
2017-07-21T12:14:05.490Z,1009.54
2017-07-21T12:15:18.137Z,1009.61
2017-07-21T12:16:30.481Z,1009.61
2017-07-21T12:17:42.770Z,1009.52
2017-07-21T12:18:55.611Z,1009.47
2017-07-21T12:20:07.926Z,1009.54
2017-07-21T12:21:20.246Z,1009.5
2017-07-21T12:22:32.824Z,1009.49
2017-07-21T12:23:45.396Z,1009.6
2017-07-21T12:24:57.646Z,1009.61
2017-07-21T12:26:09.687Z,1009.58
2017-07-21T12:27:21.989Z,1009.58
2017-07-21T12:28:34.312Z,1009.59
2017-07-21T12:29:46.614Z,1009.58
2017-07-21T12:30:59.206Z,1009.56
2017-07-21T12:32:11.821Z,1009.52
2017-07-21T12:33:24.149Z,1009.49
2017-07-21T12:34:36.783Z,1009.49
2017-07-21T12:35:49.380Z,1009.46
2017-07-21T12:37:02.013Z,1009.38
2017-07-21T12:38:13.970Z,1009.39
2017-07-21T12:39:26.604Z,1009.38
2017-07-21T12:40:38.907Z,1009.39
2017-07-21T12:41:51.494Z,1009.36
2017-07-21T12:43:03.492Z,1009.36
2017-07-21T12:44:15.818Z,1009.37
2017-07-21T12:45:28.121Z,1009.35
2017-07-21T12:46:40.351Z,1009.36
2017-07-21T12:47:52.663Z,1009.3
2017-07-21T12:49:05.236Z,1009.36
2017-07-21T12:50:17.274Z,1009.31
2017-07-21T12:51:29.845Z,1009.28
2017-07-21T12:52:42.473Z,1009.33
2017-07-21T12:53:55.064Z,1009.37
2017-07-21T12:55:07.765Z,1009.36
2017-07-21T12:56:19.712Z,1009.34
2017-07-21T12:57:31.964Z,1009.36
2017-07-21T12:58:44.581Z,1009.42
2017-07-21T12:59:57.148Z,1009.45
2017-07-21T13:01:08.818Z,1009.46
2017-07-21T13:02:21.115Z,1009.36
2017-07-21T13:03:33.708Z,1009.3
2017-07-21T13:04:45.788Z,1009.17
2017-07-21T13:05:58.476Z,1009.17
2017-07-21T13:07:10.815Z,1009.18
2017-07-21T13:08:23.106Z,1009.27
2017-07-21T13:09:35.384Z,1009.3
2017-07-21T13:10:47.949Z,1009.39
2017-07-21T13:12:00.305Z,1009.36
2017-07-21T13:13:12.561Z,1009.4
2017-07-21T13:14:25.150Z,1009.32
2017-07-21T13:15:37.771Z,1009.26
2017-07-21T13:16:50.333Z,1009.25
2017-07-21T13:18:03.288Z,1009.28
2017-07-21T13:19:15.607Z,1009.28
2017-07-21T13:20:28.196Z,1009.28
2017-07-21T13:21:40.474Z,1009.2
2017-07-21T13:22:52.802Z,1009.12
2017-07-21T13:24:05.084Z,1009.15
2017-07-21T13:25:17.655Z,1009.18
2017-07-21T13:26:30.319Z,1009.2
2017-07-21T13:27:42.880Z,1009.23
2017-07-21T13:28:54.842Z,1009.36
2017-07-21T13:30:07.484Z,1009.34
2017-07-21T13:31:19.159Z,1009.33
2017-07-21T13:32:31.824Z,1009.26
2017-07-21T13:33:44.435Z,1009.1
2017-07-21T13:34:57.063Z,1009.04
2017-07-21T13:36:09.380Z,1009.06
2017-07-21T13:37:22.032Z,1009.13
2017-07-21T13:38:34.610Z,1009.09
2017-07-21T13:39:47.238Z,1009.06
2017-07-21T13:40:59.883Z,1009.08
2017-07-21T13:42:12.449Z,1009.12
2017-07-21T13:43:24.435Z,1009.17
2017-07-21T13:44:36.998Z,1009.18
2017-07-21T13:45:49.625Z,1009.17
2017-07-21T13:47:01.939Z,1009.16
2017-07-21T13:48:13.952Z,1009.12
2017-07-21T13:49:26.529Z,1009.04
2017-07-21T13:50:38.852Z,1008.94
2017-07-21T13:51:51.397Z,1009.14
2017-07-21T13:53:03.736Z,1009.08
2017-07-21T13:54:15.717Z,1009.08
2017-07-21T13:55:28.385Z,1009
2017-07-21T13:56:40.709Z,1009.01
2017-07-21T13:57:53.287Z,1009.07
2017-07-21T13:59:05.923Z,1009.15
2017-07-21T14:00:18.481Z,1009
2017-07-21T14:01:30.819Z,1009.02
2017-07-21T14:02:43.393Z,1009.02
2017-07-21T14:03:55.980Z,1009.05
2017-07-21T14:05:08.532Z,1009.01
2017-07-21T14:06:21.158Z,1008.99
2017-07-21T14:07:33.506Z,1008.94
2017-07-21T14:08:46.100Z,1009.07
2017-07-21T14:09:58.709Z,1009.08
2017-07-21T14:11:10.994Z,1009.11
2017-07-21T14:12:23.581Z,1009.01
2017-07-21T14:13:36.175Z,1009.04
2017-07-21T14:14:48.493Z,1009.04
2017-07-21T14:16:00.778Z,1009.12
2017-07-21T14:17:13.365Z,1008.99
2017-07-21T14:18:25.992Z,1009.07
2017-07-21T14:19:38.627Z,1009.05
2017-07-21T14:20:51.231Z,1008.81
2017-07-21T14:22:03.793Z,1008.88
2017-07-21T14:23:15.842Z,1008.82
2017-07-21T14:24:28.189Z,1008.86
2017-07-21T14:25:40.765Z,1008.78
2017-07-21T14:26:53.336Z,1008.86
2017-07-21T14:28:05.592Z,1008.84
2017-07-21T14:29:17.857Z,1008.8
2017-07-21T14:30:30.467Z,1008.8
2017-07-21T14:31:43.074Z,1008.81
2017-07-21T14:32:55.715Z,1008.77
2017-07-21T14:34:08.030Z,1008.81
2017-07-21T14:35:20.319Z,1008.85
2017-07-21T14:36:32.938Z,1008.83
2017-07-21T14:37:45.542Z,1008.82
2017-07-21T14:38:58.189Z,1008.76
2017-07-21T14:40:10.766Z,1008.84